Plymouth, California
Current Conditions -  °F | °C
As of 5:15 PM on Saturday 20 Dec 2014 (Local Time) from KPVF Reporting Station
Overcast Overcast  
Wind Chill: 45°   Ceiling: 4900
Heat Index: 48°   Visibility: 10mi
Dew Point: 46°   Wind: 7mph
Humidity: 93%   Direction: 110°ESE
Pressure: 30.23"   Gusts: NA
Location:  38.48°N, 120.84°W
Report Text: KPVF 210115Z AUTO 11006KT 10SM FEW040 BKN049 OVC060 09/08 A3023 RMK AO1
Loading
Personal Weather Stations






























Interactive Weather Map New forecast layout! Learn more

10-Day Weather Forecast

Advertisements
Track Severe Weather on mobile